x

Sabine Pass, Tx (srst2) Weather Station

2:00pm - Thu 26th May 2016 All times are CDT. -5 hours from GMT.

  • Wind
    15mph, 18mph gusts
  • Air Temp 80°f
  • Sea Pressure 1016mb
  • Sabine Pass, Tx
  • Sabine Pass, Tx

More Historic Weather Station data

Upgrade to MSW Pro to gain access to the past 30 days of data for over 8000 Wavebouys and Weather Stations around the globe.

Join Pro

Comparision Forecast

View Surf forecast
   
Thu 05/26 2:00pm 15 18 mph 1016mb 80f
1:00pm 14 20 mph 1016.3mb 80f
12:00pm 14 16 mph 1016.9mb 81f
11:00am 14 18 mph 1016.6mb 81f
10:00am 11 14 mph 1017.2mb 80f
9:00am 11 17 mph 1016.9mb 81f
8:00am 13 15 mph 1017.1mb 80f
7:00am 11 15 mph 1017.2mb 79f
6:00am 13 17 mph 1016.6mb 79f
5:00am 11 15 mph 1016.3mb 79f
4:00am 14 16 mph 1016.5mb 79f
3:00am 14 18 mph 1017.1mb 80f
2:00am 14 16 mph 1017.1mb 80f
1:00am 13 16 mph 1018mb 80f
12:00am 16 20 mph 1018mb 80f
Wed 05/25 11:00pm 16 21 mph 1017.7mb 80f
10:00pm 17 22 mph 1017.8mb 80f
9:00pm 20 23 mph 1016.8mb 80f
8:00pm 14 18 mph 1017.7mb 80f
7:00pm 13 17 mph 1017.6mb 80f
6:00pm 14 15 mph 1018mb 81f
5:00pm 9 11 mph 1018.2mb 82f
4:00pm 8 10 mph 1018.4mb 82f
3:00pm 13 15 mph 1018.2mb 82f
2:00pm 13 16 mph 1018.5mb 82f
1:00pm 13 17 mph 1018.5mb 82f
12:00pm 14 16 mph 1018.4mb 81f
11:00am 13 17 mph 1019mb 82f
10:00am 15 17 mph 1019mb 81f
9:00am 10 14 mph 1019.2mb 80f
8:00am 11 14 mph 1018.6mb 80f
7:00am 9 16 mph 1018mb 79f
6:00am 13 15 mph 1017.1mb 79f
5:00am 15 18 mph 1016.5mb 79f
4:00am 14 18 mph 1016.2mb 79f
3:00am 16 18 mph 1016.3mb 79f
2:00am 15 18 mph 1016.8mb 79f
1:00am 17 20 mph 1017.6mb 79f
12:00am 15 18 mph 1017.9mb 79f
Tue 05/24 11:00pm 15 17 mph 1017.9mb 79f
10:00pm 16 18 mph 1017.7mb 79f
9:00pm 14 16 mph 1017.3mb 79f
8:00pm 14 17 mph 1016.5mb 79f
7:00pm 11 15 mph 1016.3mb 79f
6:00pm 11 15 mph 1016.4mb 80f
5:00pm 13 15 mph 1016.7mb 80f
4:00pm 16 20 mph 1016.8mb 81f
3:00pm 17 20 mph 1017mb 80f
2:00pm 17 21 mph 1017.5mb 80f
1:00pm 16 20 mph 1017.5mb 81f
12:00pm 15 18 mph 1017.4mb 81f
11:00am 15 17 mph 1017.1mb 80f
10:00am 15 20 mph 1016.4mb 79f
9:00am 14 17 mph 1016mb 78f
8:00am 13 16 mph 1015.3mb 78f
7:00am 14 18 mph 1014.8mb 77f
6:00am 13 16 mph 1014.4mb 77f
5:00am 11 15 mph 1014.4mb 77f
4:00am 13 16 mph 1014.8mb 77f
3:00am 10 15 mph 1014.7mb 77f
2:00am 14 17 mph 1014.5mb 77f
1:00am 13 16 mph 1014.6mb 77f
12:00am 11 14 mph 1014.6mb 77f
Mon 05/23 11:00pm 10 13 mph 1014.8mb 77f
10:00pm 10 13 mph 1014.3mb 77f
9:00pm 14 16 mph 1013.3mb 77f
8:00pm 13 15 mph 1013.3mb 77f
7:00pm 10 13 mph 1012.6mb 78f
6:00pm 11 17 mph 1012.7mb 78f
5:00pm 16 20 mph 1012.9mb 79f
4:00pm 13 15 mph 1013.6mb 79f
3:00pm 14 16 mph 1014.4mb 79f
2:00pm 10 13 mph 1015.3mb 80f
1:00pm 11 15 mph 1015.4mb 80f
12:00pm 13 15 mph 1015.3mb 78f
11:00am 11 15 mph 1015.2mb 78f
10:00am 14 16 mph 1015mb 78f
9:00am 10 13 mph 1014.5mb 78f
8:00am 13 16 mph 1013.8mb 77f
7:00am 11 14 mph 1013.3mb 76f
6:00am 10 13 mph 1013.7mb 76f
5:00am 11 13 mph 1013.4mb 75f
4:00am 11 14 mph 1013.2mb 76f
3:00am 10 13 mph 1013.3mb 76f
2:00am 9 11 mph 1013.9mb 76f
1:00am 7 8 mph 1014.3mb 76f
12:00am 8 10 mph 1014.7mb 76f
Sun 05/22 11:00pm 8 10 mph 1014.7mb 76f
10:00pm 9 10 mph 1014.7mb 76f
9:00pm 11 16 mph 1013.7mb 76f